Time;durP1;ratioP1;P1;durP2;ratioP2;P2;SDS_P1;SDS_P2;PMS_P1;PMS_P2;Temp;Humidity;BMP_temperature;BMP_pressure;BME280_temperature;BME280_humidity;BME280_pressure;Samples;Min_cycle;Max_cycle;Signal;HPM_P1;HPM_P2
2023/10/31 00:01:12;;;;;;;22.80;6.80;;;;;;;18.78;59.04;97615.40;67832;1273;1016348;-68
2023/10/31 00:04:14;;;;;;;26.20;7.20;;;;;;;18.76;59.12;97613.91;67908;1273;1016373;-68
2023/10/31 00:07:17;;;;;;;22.90;6.40;;;;;;;18.75;59.29;97606.56;67887;1273;1016497;-68
2023/10/31 00:10:19;;;;;;;26.00;6.70;;;;;;;18.76;59.20;97601.44;67908;1273;1016612;-67
2023/10/31 00:13:21;;;;;;;22.50;6.60;;;;;;;18.76;59.49;97596.83;67917;1273;1016435;-68
2023/10/31 00:16:24;;;;;;;25.00;6.90;;;;;;;18.79;59.41;97597.05;67866;1273;1016464;-67
2023/10/31 00:19:26;;;;;;;22.40;6.70;;;;;;;18.86;59.31;97595.68;67856;1273;1017943;-68
2023/10/31 00:22:29;;;;;;;21.60;6.00;;;;;;;18.95;58.98;97590.33;67921;1273;1016393;-67
2023/10/31 00:25:31;;;;;;;22.90;6.50;;;;;;;18.97;59.02;97582.64;67956;1273;1016150;-67
2023/10/31 00:28:33;;;;;;;20.40;6.20;;;;;;;19.11;58.67;97571.23;67928;1273;1016552;-66
2023/10/31 00:31:40;;;;;;;;;;;;;;;19.10;58.63;97571.67;67882;1273;1016046;-67
2023/10/31 00:34:43;;;;;;;23.10;5.90;;;;;;;19.01;58.93;97568.33;67911;1273;1016421;-67
2023/10/31 00:37:45;;;;;;;18.60;5.40;;;;;;;19.09;58.75;97550.61;67918;1273;1016487;-67
2023/10/31 00:40:48;;;;;;;22.30;5.70;;;;;;;19.34;58.18;97542.88;67950;1273;1016421;-68
2023/10/31 00:43:50;;;;;;;20.20;6.00;;;;;;;19.31;58.11;97536.31;67881;1273;1016259;-67
2023/10/31 00:46:52;;;;;;;19.70;5.30;;;;;;;19.21;58.43;97525.95;67890;1273;1016626;-67
2023/10/31 00:49:55;;;;;;;20.10;5.30;;;;;;;19.33;58.25;97517.13;67891;1273;1018113;-67
2023/10/31 00:52:57;;;;;;;21.10;6.40;;;;;;;19.35;58.21;97508.36;67899;1273;1016411;-68
2023/10/31 00:55:59;;;;;;;21.00;5.60;;;;;;;19.46;57.93;97504.99;67933;1273;1018156;-68
2023/10/31 00:59:02;;;;;;;19.60;5.50;;;;;;;19.43;58.19;97496.08;67945;1273;1016362;-68
2023/10/31 01:02:05;;;;;;;22.60;6.30;;;;;;;19.52;58.01;97483.33;67855;1273;1018413;-68
2023/10/31 01:05:07;;;;;;;20.90;5.80;;;;;;;19.53;57.97;97475.56;67905;1273;1016057;-68
2023/10/31 01:08:09;;;;;;;18.10;5.20;;;;;;;19.53;58.11;97472.20;67931;1273;1016363;-67
2023/10/31 01:11:12;;;;;;;19.90;4.90;;;;;;;19.49;58.31;97467.94;67909;1273;1016116;-68
2023/10/31 01:14:14;;;;;;;23.70;5.30;;;;;;;19.53;58.23;97468.52;67886;1273;1016347;-68
2023/10/31 01:17:17;;;;;;;18.70;4.80;;;;;;;19.52;58.23;97453.05;67668;1273;1016369;-68
2023/10/31 01:20:19;;;;;;;19.70;4.90;;;;;;;19.45;58.47;97456.27;67900;1273;1016400;-67
2023/10/31 01:23:22;;;;;;;18.80;4.80;;;;;;;19.39;58.69;97450.09;67920;1273;1016191;-67
2023/10/31 01:26:25;;;;;;;21.50;4.60;;;;;;;19.39;58.78;97439.02;67884;1273;1016501;-67
2023/10/31 01:29:27;;;;;;;22.40;5.40;;;;;;;19.41;58.75;97433.43;67856;1273;1016103;-67
2023/10/31 01:32:30;;;;;;;23.60;5.90;;;;;;;19.45;58.68;97431.37;67891;1273;1016114;-66
2023/10/31 01:35:32;;;;;;;19.30;5.10;;;;;;;19.48;58.71;97429.03;67901;1273;1016231;-67
2023/10/31 01:38:34;;;;;;;18.00;4.70;;;;;;;19.63;58.27;97423.41;67865;1273;1016365;-65
2023/10/31 01:41:37;;;;;;;22.70;5.70;;;;;;;19.47;58.59;97415.71;67915;1273;1016390;-68
2023/10/31 01:44:39;;;;;;;;;;;;;;;19.31;59.05;97411.25;67935;1273;1016404;-68
2023/10/31 01:47:42;;;;;;;20.90;4.70;;;;;;;19.25;59.32;97407.00;67936;1273;1015846;-67
2023/10/31 01:50:44;;;;;;;25.50;6.20;;;;;;;19.21;59.51;97397.86;67942;1273;1016494;-68
2023/10/31 01:53:47;;;;;;;22.40;4.60;;;;;;;19.30;59.14;97389.20;67836;1273;1016396;-66
2023/10/31 01:56:50;;;;;;;22.20;4.80;;;;;;;19.35;59.05;97379.74;67860;1273;1016287;-66
2023/10/31 01:59:53;;;;;;;16.70;4.50;;;;;;;19.41;58.81;97374.21;67896;1273;1016399;-66
2023/10/31 02:02:56;;;;;;;20.20;5.20;;;;;;;19.32;58.90;97374.95;67922;1273;1016439;-67
2023/10/31 02:05:59;;;;;;;26.00;7.40;;;;;;;19.37;58.73;97369.79;67896;1273;1016278;-68
2023/10/31 02:09:01;;;;;;;21.50;4.70;;;;;;;19.39;58.45;97357.79;67865;1273;1016406;-67
2023/10/31 02:12:03;;;;;;;24.30;5.60;;;;;;;19.49;58.00;97351.65;67887;1273;1016602;-66
2023/10/31 02:15:06;;;;;;;20.50;4.90;;;;;;;19.54;57.85;97347.17;67913;1273;1016260;-66
2023/10/31 02:18:08;;;;;;;17.60;4.50;;;;;;;19.41;58.12;97342.27;67897;1273;1016438;-68
2023/10/31 02:21:11;;;;;;;22.20;5.00;;;;;;;19.41;58.09;97331.55;67886;1273;1016215;-65
2023/10/31 02:24:13;;;;;;;19.90;4.10;;;;;;;19.36;58.13;97322.30;67864;1273;1016666;-65
2023/10/31 02:27:15;;;;;;;21.30;4.50;;;;;;;19.31;58.07;97311.23;67852;1273;1017447;-67
2023/10/31 02:30:18;;;;;;;18.00;4.20;;;;;;;19.27;58.19;97303.33;67909;1273;1015887;-67
2023/10/31 02:33:20;;;;;;;17.70;4.10;;;;;;;19.33;57.95;97299.71;67925;1273;1016391;-67
2023/10/31 02:36:23;;;;;;;19.60;4.40;;;;;;;19.41;57.65;97280.14;67926;1273;1016439;-67
2023/10/31 02:39:25;;;;;;;16.60;4.30;;;;;;;19.37;57.64;97280.83;67877;1273;1016100;-68
2023/10/31 02:42:27;;;;;;;16.30;3.30;;;;;;;19.41;57.45;97272.65;67897;1273;1016400;-67
2023/10/31 02:45:30;;;;;;;19.20;4.60;;;;;;;19.34;57.56;97259.09;67891;1273;1016431;-68
2023/10/31 02:48:38;;;;;;;17.60;4.20;;;;;;;19.36;57.63;97259.84;67896;1273;1016381;-65
2023/10/31 02:51:40;;;;;;;16.90;3.80;;;;;;;19.33;57.58;97262.30;67919;1273;1016152;-68
2023/10/31 02:54:42;;;;;;;14.30;3.70;;;;;;;19.47;57.19;97263.59;67892;1273;1016285;-67
2023/10/31 02:57:45;;;;;;;;;;;;;;;19.58;56.82;97261.06;67904;1273;1016244;-67
2023/10/31 03:00:47;;;;;;;17.30;4.00;;;;;;;19.70;56.48;97262.16;67892;1273;1017066;-67
2023/10/31 03:03:50;;;;;;;19.20;3.70;;;;;;;19.76;56.25;97260.46;67903;1273;1016755;-67
2023/10/31 03:06:52;;;;;;;;;;;;;;;19.72;56.43;97261.39;67944;1273;1016314;-67
2023/10/31 03:09:55;;;;;;;17.50;4.00;;;;;;;19.62;56.61;97256.64;67934;1273;1016400;-68
2023/10/31 03:12:59;;;;;;;17.70;3.70;;;;;;;19.71;56.33;97254.64;67910;1273;1018938;-68
2023/10/31 03:16:01;;;;;;;20.40;4.00;;;;;;;19.80;56.09;97253.91;67891;1273;1017289;-67
2023/10/31 03:19:03;;;;;;;22.80;5.30;;;;;;;19.82;56.06;97253.36;67898;1273;1017243;-67
2023/10/31 03:22:06;;;;;;;19.90;4.40;;;;;;;19.81;55.86;97248.24;67894;1273;1016239;-68
2023/10/31 03:25:09;;;;;;;;;;;;;;;19.95;55.39;97251.16;67939;1273;1016178;-68
2023/10/31 03:28:11;;;;;;;17.00;4.00;;;;;;;19.97;55.31;97251.50;67919;1273;1015934;-67
2023/10/31 03:31:13;;;;;;;16.80;3.50;;;;;;;20.06;55.04;97247.16;67878;1273;1015934;-68
2023/10/31 03:34:16;;;;;;;17.80;3.50;;;;;;;20.06;55.11;97242.56;67896;1273;1016365;-68
2023/10/31 03:37:18;;;;;;;16.80;3.70;;;;;;;20.14;54.75;97235.47;67911;1273;1018936;-68
2023/10/31 03:40:20;;;;;;;13.10;3.40;;;;;;;20.13;54.77;97234.27;67897;1273;1016398;-67
2023/10/31 03:43:23;;;;;;;14.40;3.70;;;;;;;20.08;54.61;97227.56;67918;1273;1016381;-67
2023/10/31 03:46:25;;;;;;;11.80;3.10;;;;;;;20.17;54.41;97221.27;67922;1273;1016340;-68
2023/10/31 03:49:28;;;;;;;13.40;3.40;;;;;;;20.20;54.32;97225.52;67870;1273;1016454;-67
2023/10/31 03:52:30;;;;;;;20.10;3.10;;;;;;;20.25;54.31;97225.10;67918;1273;1016415;-68
2023/10/31 03:55:33;;;;;;;16.30;3.30;;;;;;;20.19;54.23;97224.52;67926;1273;1016199;-68
2023/10/31 03:58:35;;;;;;;;;;;;;;;20.19;54.40;97231.01;67892;1273;1015924;-67
2023/10/31 04:01:38;;;;;;;14.10;3.30;;;;;;;20.28;54.21;97241.25;67901;1273;1018130;-68
2023/10/31 04:04:40;;;;;;;15.90;3.30;;;;;;;20.26;54.14;97234.03;67888;1273;1016470;-68
2023/10/31 04:07:43;;;;;;;15.10;3.20;;;;;;;20.23;54.21;97226.26;67889;1273;1017673;-66
2023/10/31 04:10:45;;;;;;;18.00;3.80;;;;;;;20.19;54.03;97225.60;67878;1273;1016081;-67
2023/10/31 04:13:47;;;;;;;12.20;3.00;;;;;;;20.37;53.70;97225.02;67889;1273;1016438;-67
2023/10/31 04:16:50;;;;;;;14.10;3.30;;;;;;;20.43;53.27;97225.46;67864;1273;1016226;-67
2023/10/31 04:19:52;;;;;;;12.90;3.10;;;;;;;20.34;53.34;97224.66;67954;1273;1016275;-67
2023/10/31 04:22:55;;;;;;;15.40;2.80;;;;;;;20.34;53.57;97224.96;67922;1273;1017527;-66
2023/10/31 04:25:57;;;;;;;14.90;3.30;;;;;;;20.27;53.57;97220.64;67898;1273;1016384;-67
2023/10/31 04:28:59;;;;;;;11.60;3.10;;;;;;;20.21;53.67;97213.13;67868;1273;1016311;-68
2023/10/31 04:32:02;;;;;;;12.60;3.10;;;;;;;20.28;53.49;97209.20;67902;1273;1016444;-68
2023/10/31 04:35:04;;;;;;;13.20;3.20;;;;;;;20.38;53.13;97198.15;67909;1273;1017785;-68
2023/10/31 04:38:07;;;;;;;14.60;3.10;;;;;;;20.41;52.98;97190.30;67904;1273;1016253;-68
2023/10/31 04:41:09;;;;;;;13.10;2.80;;;;;;;20.50;52.50;97190.27;67961;1273;1016348;-68
2023/10/31 04:44:12;;;;;;;;;;;;;;;20.43;52.59;97180.89;67885;1273;1016425;-68
2023/10/31 04:47:14;;;;;;;14.50;3.20;;;;;;;20.46;52.45;97174.92;67882;1273;1015908;-66
2023/10/31 04:50:16;;;;;;;15.60;3.70;;;;;;;20.43;52.26;97168.27;67922;1273;1016271;-67
2023/10/31 04:53:19;;;;;;;14.00;3.30;;;;;;;20.39;52.24;97164.89;67914;1273;1017345;-67
2023/10/31 04:56:21;;;;;;;15.10;3.40;;;;;;;20.45;51.87;97158.65;67879;1273;1016494;-68
2023/10/31 04:59:23;;;;;;;12.40;3.20;;;;;;;20.47;51.91;97150.94;67861;1273;1016459;-68
2023/10/31 05:02:26;;;;;;;16.90;3.50;;;;;;;20.38;51.97;97153.34;67886;1273;1016460;-68
2023/10/31 05:05:28;;;;;;;15.70;3.40;;;;;;;20.47;51.88;97150.08;67920;1273;1016589;-67
2023/10/31 05:08:31;;;;;;;18.70;4.20;;;;;;;20.47;51.92;97140.48;67909;1273;1016333;-68
2023/10/31 05:11:33;;;;;;;16.20;3.50;;;;;;;20.52;51.65;97137.55;67926;1273;1016424;-67
2023/10/31 05:14:35;;;;;;;17.80;3.80;;;;;;;20.59;51.39;97135.94;67842;1273;1016458;-68
2023/10/31 05:17:38;;;;;;;16.00;4.10;;;;;;;20.58;51.20;97132.88;67872;1273;1018140;-67
2023/10/31 05:20:40;;;;;;;12.40;3.50;;;;;;;20.60;51.12;97129.97;67916;1273;1016252;-68
2023/10/31 05:23:43;;;;;;;15.20;3.50;;;;;;;20.59;51.23;97139.96;67926;1273;1016471;-68
2023/10/31 05:26:45;;;;;;;17.10;4.40;;;;;;;20.64;51.20;97136.34;67888;1273;1016666;-68
2023/10/31 05:29:48;;;;;;;13.10;3.50;;;;;;;20.57;51.24;97135.94;67899;1273;1016364;-68
2023/10/31 05:32:50;;;;;;;17.60;4.10;;;;;;;20.51;51.15;97141.52;67873;1273;1016716;-68
2023/10/31 05:35:52;;;;;;;18.80;3.70;;;;;;;20.43;51.06;97145.76;67912;1273;1016399;-68
2023/10/31 05:38:55;;;;;;;16.50;4.10;;;;;;;20.54;51.22;97146.14;67933;1273;1016470;-69
2023/10/31 05:41:57;;;;;;;16.30;3.60;;;;;;;20.61;50.91;97157.05;67884;1273;1017236;-68
2023/10/31 05:45:00;;;;;;;16.10;4.00;;;;;;;20.72;50.68;97162.86;67860;1273;1016353;-68
2023/10/31 05:48:03;;;;;;;17.10;4.00;;;;;;;20.81;50.47;97163.11;67887;1273;1016495;-68
2023/10/31 05:51:06;;;;;;;15.30;3.90;;;;;;;20.82;50.47;97159.92;67869;1273;1016199;-68
2023/10/31 05:54:08;;;;;;;15.20;3.70;;;;;;;20.81;50.38;97157.25;67881;1273;1018010;-68
2023/10/31 05:57:11;;;;;;;18.40;4.30;;;;;;;20.75;50.29;97165.27;67908;1273;1018378;-68
2023/10/31 06:00:13;;;;;;;18.60;4.80;;;;;;;20.75;50.41;97161.09;67812;1273;1017624;-67
2023/10/31 06:03:16;;;;;;;16.30;4.70;;;;;;;20.75;50.28;97158.74;67829;1273;1016454;-67
2023/10/31 06:06:18;;;;;;;;;;;;;;;20.75;50.37;97159.08;67918;1273;1016682;-67
2023/10/31 06:09:21;;;;;;;16.70;3.90;;;;;;;20.63;50.46;97154.70;67905;1273;1016373;-67
2023/10/31 06:12:23;;;;;;;16.90;4.80;;;;;;;20.72;50.41;97158.77;67923;1273;1016514;-66
2023/10/31 06:15:26;;;;;;;17.90;4.00;;;;;;;20.66;50.44;97154.96;67903;1273;1016304;-67
2023/10/31 06:18:28;;;;;;;14.80;3.60;;;;;;;20.63;50.49;97151.16;67850;1273;1016383;-68
2023/10/31 06:21:30;;;;;;;17.00;4.00;;;;;;;20.68;50.23;97155.01;67851;1273;1016493;-68
2023/10/31 06:24:33;;;;;;;15.90;3.60;;;;;;;20.78;50.06;97148.63;67920;1273;1015939;-67
2023/10/31 06:27:35;;;;;;;18.50;4.60;;;;;;;20.83;49.93;97147.05;67889;1273;1016212;-67
2023/10/31 06:30:38;;;;;;;14.80;3.70;;;;;;;20.88;50.00;97147.84;67902;1273;1016537;-68
2023/10/31 06:33:40;;;;;;;18.40;4.90;;;;;;;20.85;49.77;97140.21;67875;1273;1016419;-68
2023/10/31 06:36:42;;;;;;;22.80;6.30;;;;;;;20.81;49.99;97144.13;67860;1273;1016502;-68
2023/10/31 06:39:45;;;;;;;22.10;6.00;;;;;;;20.88;49.84;97144.64;67892;1273;1016442;-68
2023/10/31 06:42:47;;;;;;;;;;;;;;;20.90;49.78;97156.21;67914;1273;1016374;-67
2023/10/31 06:45:50;;;;;;;28.40;8.30;;;;;;;21.02;49.56;97163.09;67920;1273;1016416;-66
2023/10/31 06:48:52;;;;;;;20.40;5.00;;;;;;;21.04;49.83;97167.83;67875;1273;1015864;-67
2023/10/31 06:51:55;;;;;;;20.80;5.10;;;;;;;21.30;49.38;97167.76;67875;1273;1016343;-68
2023/10/31 06:54:57;;;;;;;19.20;5.80;;;;;;;21.22;49.38;97163.14;67890;1273;1015977;-67
2023/10/31 06:58:00;;;;;;;18.90;5.10;;;;;;;21.17;49.12;97161.81;67934;1273;1016380;-67
2023/10/31 07:01:02;;;;;;;21.70;5.90;;;;;;;21.12;49.23;97159.81;67918;1273;1016134;-67
2023/10/31 07:04:04;;;;;;;21.10;5.80;;;;;;;21.10;49.44;97157.05;67879;1273;1016448;-67
2023/10/31 07:07:07;;;;;;;21.60;4.30;;;;;;;21.15;49.21;97153.50;67847;1273;1016419;-68
2023/10/31 07:10:10;;;;;;;16.30;4.20;;;;;;;21.16;49.19;97155.10;67912;1273;1016255;-69
2023/10/31 07:13:12;;;;;;;21.00;4.70;;;;;;;21.20;49.00;97156.04;67872;1257;1016242;-63
2023/10/31 07:16:15;;;;;;;;;;;;;;;21.33;48.51;97149.14;67850;1273;1018894;-68
2023/10/31 07:19:17;;;;;;;19.80;4.10;;;;;;;21.40;48.39;97150.54;67932;1273;1016563;-68
2023/10/31 07:22:19;;;;;;;13.50;3.40;;;;;;;21.40;48.35;97148.70;67900;1272;1016391;-67
2023/10/31 07:25:22;;;;;;;14.20;3.70;;;;;;;21.41;48.21;97156.13;67921;1273;1016419;-68
2023/10/31 07:28:24;;;;;;;16.60;3.90;;;;;;;21.38;48.22;97149.27;67933;1273;1016062;-67
2023/10/31 07:31:27;;;;;;;13.50;3.60;;;;;;;21.52;48.17;97160.08;67888;1273;1016090;-67
2023/10/31 07:34:29;;;;;;;16.90;3.50;;;;;;;21.65;48.09;97156.20;67865;1273;1016198;-68
2023/10/31 07:37:31;;;;;;;16.40;3.80;;;;;;;21.61;47.96;97150.05;67872;1273;1016204;-68
2023/10/31 07:40:34;;;;;;;17.30;4.00;;;;;;;21.66;48.09;97157.50;67905;1273;1016335;-69
2023/10/31 07:43:36;;;;;;;15.40;3.70;;;;;;;21.76;47.75;97157.27;67928;1273;1018437;-67
2023/10/31 07:46:38;;;;;;;17.10;4.30;;;;;;;21.78;47.84;97167.66;67848;1273;1016202;-68
2023/10/31 07:49:41;;;;;;;17.00;3.70;;;;;;;21.89;47.88;97164.45;67886;1273;1016625;-68
2023/10/31 07:52:46;;;;;;;15.60;4.00;;;;;;;21.87;47.33;97161.98;67934;1273;1016614;-66
2023/10/31 07:55:49;;;;;;;20.90;4.10;;;;;;;21.83;47.38;97164.58;67908;1273;1016400;-68
2023/10/31 07:58:51;;;;;;;16.50;4.00;;;;;;;21.86;47.09;97159.53;67878;1273;1017091;-68
2023/10/31 08:01:53;;;;;;;17.50;4.50;;;;;;;21.90;47.05;97164.17;67871;1273;1016471;-66
2023/10/31 08:04:56;;;;;;;14.90;3.50;;;;;;;22.01;46.80;97165.47;67898;1273;1016444;-67
2023/10/31 08:07:59;;;;;;;;;;;;;;;21.95;47.15;97169.39;67913;1273;1016480;-68
2023/10/31 08:11:01;;;;;;;;;;;;;;;22.00;47.19;97174.23;67877;1273;1015993;-68
2023/10/31 08:14:03;;;;;;;15.20;3.70;;;;;;;21.99;47.02;97175.86;67856;1273;1016771;-68
2023/10/31 08:17:06;;;;;;;;;;;;;;;22.10;46.80;97187.20;67920;1273;1016488;-67
2023/10/31 08:20:09;;;;;;;15.80;3.60;;;;;;;22.09;46.89;97194.20;67940;1273;1016392;-68
2023/10/31 08:23:11;;;;;;;16.60;4.10;;;;;;;21.98;46.64;97193.64;67860;1273;1016115;-68
2023/10/31 08:26:14;;;;;;;18.20;4.10;;;;;;;22.10;46.91;97194.56;67857;1273;1016445;-66
2023/10/31 08:29:16;;;;;;;17.20;4.00;;;;;;;22.16;46.77;97199.62;67904;1273;1016321;-68
2023/10/31 08:32:19;;;;;;;21.90;4.40;;;;;;;22.20;46.90;97203.92;67892;1273;1016274;-68
2023/10/31 08:35:21;;;;;;;21.90;4.20;;;;;;;22.26;46.72;97207.74;67904;1273;1016373;-67
2023/10/31 08:38:24;;;;;;;17.80;3.80;;;;;;;22.30;46.68;97215.16;67865;1273;1016423;-68
2023/10/31 08:41:26;;;;;;;15.60;3.80;;;;;;;22.35;46.49;97215.23;67936;1273;1016192;-67
2023/10/31 08:44:29;;;;;;;16.40;3.50;;;;;;;22.32;46.54;97224.17;67939;1273;1016665;-67
2023/10/31 08:47:31;;;;;;;20.80;4.40;;;;;;;22.29;46.54;97228.82;67949;1273;1018847;-68
2023/10/31 08:50:33;;;;;;;;;;;;;;;22.33;46.38;97231.49;67865;1273;1016187;-67
2023/10/31 08:53:36;;;;;;;17.60;3.90;;;;;;;22.27;46.23;97248.76;67879;1273;1016131;-68
2023/10/31 08:56:38;;;;;;;17.50;4.70;;;;;;;22.24;46.37;97249.15;67884;1273;1016457;-67
2023/10/31 08:59:41;;;;;;;17.40;4.20;;;;;;;22.29;46.35;97246.13;67928;1273;1016543;-67
2023/10/31 09:02:43;;;;;;;;;;;;;;;22.32;46.42;97249.98;67930;1273;1018903;-68
2023/10/31 09:05:46;;;;;;;;;;;;;;;22.34;46.13;97254.17;67887;1273;1016275;-68
2023/10/31 09:08:48;;;;;;;15.00;3.70;;;;;;;22.49;46.19;97254.66;67893;1273;1016444;-67
2023/10/31 09:11:50;;;;;;;16.60;3.60;;;;;;;22.60;46.12;97253.17;67933;1273;1016334;-66
2023/10/31 09:14:53;;;;;;;15.30;3.70;;;;;;;22.76;45.88;97253.21;67933;1273;1016491;-68
2023/10/31 09:17:55;;;;;;;16.60;4.10;;;;;;;22.85;45.92;97250.87;67898;1273;1016396;-68
2023/10/31 09:20:58;;;;;;;;;;;;;;;22.80;45.97;97250.45;67892;1273;1016409;-67
2023/10/31 09:24:00;;;;;;;14.30;3.60;;;;;;;22.93;45.17;97237.66;67880;1273;1016645;-68
2023/10/31 09:27:03;;;;;;;14.90;3.00;;;;;;;23.11;44.66;97228.74;67918;1273;1016429;-68
2023/10/31 09:30:05;;;;;;;17.90;3.80;;;;;;;23.39;44.41;97221.67;67920;1273;1016453;-66
2023/10/31 09:33:08;;;;;;;14.00;2.80;;;;;;;23.52;44.09;97227.36;67908;1273;1016269;-68
2023/10/31 09:36:10;;;;;;;;;;;;;;;23.70;43.80;97229.73;67892;1273;1016323;-68
2023/10/31 09:39:12;;;;;;;18.10;3.80;;;;;;;23.80;43.28;97234.70;67878;1273;1016446;-68
2023/10/31 09:42:15;;;;;;;;;;;;;;;23.85;42.60;97222.98;67917;1273;1016114;-67
2023/10/31 09:45:17;;;;;;;14.70;3.30;;;;;;;23.94;42.70;97231.50;67921;1273;1016086;-68
2023/10/31 09:48:20;;;;;;;13.30;3.30;;;;;;;23.92;42.68;97235.38;67850;1273;1016077;-68
2023/10/31 09:51:22;;;;;;;17.60;3.50;;;;;;;23.94;42.43;97243.76;67890;1273;1016419;-67
2023/10/31 09:54:24;;;;;;;18.60;3.50;;;;;;;23.91;42.05;97239.72;67850;1273;1016287;-66
2023/10/31 09:57:27;;;;;;;;;;;;;;;24.04;41.90;97235.16;67897;1273;1016645;-65
2023/10/31 10:00:29;;;;;;;15.80;3.60;;;;;;;24.02;41.84;97239.77;67908;1273;1016330;-68
2023/10/31 10:03:32;;;;;;;;;;;;;;;24.14;41.32;97238.92;67920;1273;1016471;-67
2023/10/31 10:06:34;;;;;;;16.70;4.00;;;;;;;24.37;41.24;97246.14;67885;1273;1016287;-68
2023/10/31 10:09:36;;;;;;;;;;;;;;;24.45;41.29;97241.23;67875;1273;1016315;-67
2023/10/31 10:12:39;;;;;;;16.90;3.80;;;;;;;24.39;41.34;97239.80;67885;1251;1016664;-68
2023/10/31 10:15:42;;;;;;;15.50;3.90;;;;;;;24.40;41.59;97242.64;67923;1273;1016403;-68
2023/10/31 10:18:45;;;;;;;22.00;4.10;;;;;;;24.37;41.36;97251.44;67862;1273;1018844;-68
2023/10/31 10:21:48;;;;;;;18.30;4.70;;;;;;;24.28;41.51;97255.80;67908;1273;1016252;-68
2023/10/31 10:24:50;;;;;;;18.00;4.40;;;;;;;24.32;41.61;97267.98;67874;1273;1018656;-68
2023/10/31 10:27:52;;;;;;;16.90;4.20;;;;;;;24.45;41.72;97270.70;67906;1273;1016631;-68
2023/10/31 10:30:55;;;;;;;16.40;4.10;;;;;;;24.54;41.72;97271.81;67865;1273;1016458;-68
2023/10/31 10:33:57;;;;;;;;;;;;;;;24.65;41.36;97274.20;67943;1273;1017904;-68
2023/10/31 10:37:00;;;;;;;;;;;;;;;24.75;41.25;97277.04;67936;1273;1015795;-68
2023/10/31 10:40:02;;;;;;;15.80;3.70;;;;;;;24.92;41.31;97282.02;67896;1273;1016442;-67
2023/10/31 10:43:05;;;;;;;18.70;4.60;;;;;;;24.94;40.89;97278.16;67914;1273;1016425;-68
2023/10/31 10:46:07;;;;;;;14.70;4.20;;;;;;;24.93;41.24;97267.61;67863;1273;1016407;-68
2023/10/31 10:49:10;;;;;;;14.60;4.20;;;;;;;25.03;41.58;97265.38;67914;1273;1016422;-67
2023/10/31 10:52:12;;;;;;;16.90;4.60;;;;;;;25.18;40.90;97257.27;67940;1273;1016303;-68
2023/10/31 10:55:16;;;;;;;;;;;;;;;25.27;41.34;97255.18;67904;1273;1017299;-68
2023/10/31 10:58:19;;;;;;;13.40;3.60;;;;;;;25.31;41.13;97264.92;67853;1273;1016640;-68
2023/10/31 11:01:22;;;;;;;16.70;4.20;;;;;;;24.99;40.92;97282.96;67845;1273;1016857;-69
2023/10/31 11:04:24;;;;;;;16.30;4.60;;;;;;;24.76;41.70;97294.14;67890;1273;1016163;-68
2023/10/31 11:07:27;;;;;;;16.80;4.50;;;;;;;24.80;41.75;97281.36;67890;1273;1016455;-69
2023/10/31 11:10:30;;;;;;;15.50;3.50;;;;;;;24.96;41.14;97283.53;67921;1273;1016447;-67
2023/10/31 11:13:32;;;;;;;14.60;3.50;;;;;;;24.96;41.24;97304.33;67897;1273;1016464;-68
2023/10/31 11:16:35;;;;;;;15.00;3.20;;;;;;;25.04;41.53;97304.23;67866;1273;1016897;-68
2023/10/31 11:19:37;;;;;;;;;;;;;;;25.10;41.42;97304.63;67887;1273;1017721;-65
2023/10/31 11:22:40;;;;;;;13.80;4.20;;;;;;;25.14;41.37;97296.58;67916;1273;1018120;-67
2023/10/31 11:25:43;;;;;;;22.00;4.50;;;;;;;25.11;41.65;97302.39;67868;1273;1018827;-68
2023/10/31 11:28:46;;;;;;;13.80;2.90;;;;;;;25.17;41.50;97302.27;67927;1273;1017607;-68
2023/10/31 11:31:48;;;;;;;19.10;4.30;;;;;;;24.59;41.96;97317.33;67892;1273;1016467;-68
2023/10/31 11:34:50;;;;;;;20.00;4.40;;;;;;;24.18;42.76;97322.96;67892;1273;1016317;-68
2023/10/31 11:37:53;;;;;;;14.50;3.70;;;;;;;23.92;43.48;97317.27;67880;1273;1016427;-67
2023/10/31 11:40:55;;;;;;;;;;;;;;;23.95;43.62;97310.82;67895;1273;1016368;-66
2023/10/31 11:43:57;;;;;;;12.00;3.40;;;;;;;24.06;43.80;97319.32;67901;1273;1016377;-68
2023/10/31 11:47:00;;;;;;;;;;;;;;;24.10;43.71;97325.88;67919;1273;1017065;-68
2023/10/31 11:50:02;;;;;;;15.70;4.40;;;;;;;24.03;44.10;97317.31;67944;1273;1016357;-68
2023/10/31 11:53:05;;;;;;;15.30;3.00;;;;;;;23.94;44.33;97325.94;67867;1273;1016410;-66
2023/10/31 11:56:08;;;;;;;14.20;3.80;;;;;;;24.10;44.16;97346.07;67864;1273;1016452;-66
2023/10/31 11:59:11;;;;;;;14.10;3.70;;;;;;;24.42;43.97;97344.88;67925;1273;1016490;-66
2023/10/31 12:02:13;;;;;;;16.80;4.10;;;;;;;24.39;43.95;97345.00;67866;1273;1016278;-66
2023/10/31 12:05:16;;;;;;;17.40;4.40;;;;;;;24.40;44.13;97335.17;67922;1273;1016252;-67
2023/10/31 12:08:19;;;;;;;22.00;5.70;;;;;;;24.58;43.93;97345.30;67879;1273;1016460;-66
2023/10/31 12:11:21;;;;;;;23.10;5.70;;;;;;;24.93;43.57;97355.11;67895;1273;1016509;-67
2023/10/31 12:14:24;;;;;;;18.70;4.90;;;;;;;24.76;43.71;97358.40;67887;1273;1016361;-69
2023/10/31 12:17:26;;;;;;;17.50;3.90;;;;;;;24.69;43.80;97353.59;67931;1273;1015905;-68
2023/10/31 12:20:29;;;;;;;12.50;3.60;;;;;;;24.70;43.84;97348.47;67885;1273;1016153;-68
2023/10/31 12:23:31;;;;;;;;;;;;;;;24.59;43.96;97354.48;67863;1273;1016458;-68
2023/10/31 12:26:34;;;;;;;12.00;3.10;;;;;;;24.33;44.19;97353.32;67884;1273;1016173;-68
2023/10/31 12:29:37;;;;;;;17.20;4.20;;;;;;;24.03;44.53;97356.17;67900;1273;1016388;-69
2023/10/31 12:32:39;;;;;;;;;;;;;;;24.04;44.42;97342.56;67904;1273;1016349;-68
2023/10/31 12:35:41;;;;;;;16.60;4.10;;;;;;;24.04;44.18;97334.85;67882;1273;1016193;-68
2023/10/31 12:38:44;;;;;;;;;;;;;;;24.03;44.60;97329.72;67891;1273;1016432;-68
2023/10/31 12:41:46;;;;;;;14.30;3.00;;;;;;;24.02;44.73;97329.97;67936;1273;1016444;-68
2023/10/31 12:44:48;;;;;;;;;;;;;;;24.00;44.94;97331.17;67935;1273;1015731;-69
2023/10/31 12:47:51;;;;;;;13.20;3.30;;;;;;;24.11;44.97;97321.42;67909;1273;1018578;-68
2023/10/31 12:50:53;;;;;;;;;;;;;;;24.11;44.97;97322.81;67908;1273;1016443;-69
2023/10/31 12:53:56;;;;;;;12.20;3.10;;;;;;;24.14;44.75;97323.52;67898;1273;1016451;-67
2023/10/31 12:56:59;;;;;;;10.70;3.50;;;;;;;24.15;45.05;97322.42;67918;1273;1016380;-68
2023/10/31 13:00:02;;;;;;;14.90;3.70;;;;;;;24.16;44.80;97310.71;67956;1273;1018515;-68
2023/10/31 13:03:05;;;;;;;11.40;3.20;;;;;;;24.07;44.78;97307.42;67940;1273;1016606;-69
2023/10/31 13:06:07;;;;;;;13.00;3.30;;;;;;;24.08;44.76;97315.92;67902;1273;1016824;-69
2023/10/31 13:09:12;;;;;;;13.00;3.20;;;;;;;24.06;44.73;97317.71;67899;1273;1017544;-68
2023/10/31 13:12:14;;;;;;;14.00;3.40;;;;;;;23.91;45.02;97326.04;67921;1273;1016434;-67
2023/10/31 13:15:17;;;;;;;14.30;3.50;;;;;;;23.93;44.74;97325.38;67855;1273;1016436;-69
2023/10/31 13:18:19;;;;;;;14.20;3.50;;;;;;;24.09;44.33;97332.73;67707;1273;1016625;-68
2023/10/31 13:21:22;;;;;;;9.80;3.10;;;;;;;23.98;44.83;97339.83;67923;1273;1016345;-67
2023/10/31 13:24:24;;;;;;;;;;;;;;;23.80;45.13;97344.17;67876;1273;1016500;-66
2023/10/31 13:27:27;;;;;;;15.60;3.30;;;;;;;23.67;45.49;97346.79;67887;1273;1016848;-68
2023/10/31 13:30:30;;;;;;;13.70;3.50;;;;;;;23.64;45.60;97348.81;67961;1273;1016055;-68
2023/10/31 13:33:32;;;;;;;16.10;4.10;;;;;;;23.66;45.79;97344.30;67877;1273;1016330;-68
2023/10/31 13:36:37;;;;;;;;;;;;;;;23.88;45.13;97345.00;67934;1273;1016168;-66
2023/10/31 13:39:39;;;;;;;18.80;4.50;;;;;;;23.71;45.47;97344.20;67907;1273;1016394;-67
2023/10/31 13:42:41;;;;;;;20.10;5.30;;;;;;;23.61;45.72;97341.79;67941;1273;1017247;-68
2023/10/31 13:45:44;;;;;;;;;;;;;;;23.58;45.64;97339.91;67943;1273;1016020;-68
2023/10/31 13:48:46;;;;;;;18.70;4.40;;;;;;;23.42;45.80;97343.96;67884;1273;1016135;-69
2023/10/31 13:51:49;;;;;;;16.90;3.60;;;;;;;23.32;46.10;97350.88;67876;1273;1016279;-68
2023/10/31 13:54:51;;;;;;;17.80;4.50;;;;;;;23.19;46.24;97348.90;67912;1273;1016404;-69
2023/10/31 13:57:53;;;;;;;21.70;6.10;;;;;;;23.15;46.23;97350.48;67943;1273;1016332;-68
2023/10/31 14:00:56;;;;;;;;;;;;;;;23.19;46.42;97358.41;67937;1273;1016426;-67